Lida, Nevada
Current Conditions -  °F | °C
As of 1:56 PM on Monday 22 Dec 2014 (Local Time) from KTPH Reporting Station
Clear Clear  
Wind Chill: 55°   Ceiling: Unl
Heat Index: 55°   Visibility: 10mi
Dew Point: 34°   Wind: 35mph
Humidity: 45%   Direction: 330°NNW
Pressure: 30.19"   Gusts: 41mph
Location:  37.7558°N, 117.435°W
Report Text: KTPH 222156Z AUTO 33030G36KT 10SM CLR 13/01 A3019 RMK AO2 PK WND 33036/2155 SLP194 T01280011
Loading
Personal Weather Stations






























Interactive Weather Map New forecast layout! Learn more

10-Day Weather Forecast

Advertisements
Track Severe Weather on mobile